createdAt,value
2018-05-13T00:04:39.899Z,94799
2018-05-13T00:07:10.522Z,94800
2018-05-13T00:09:41.167Z,94801
2018-05-13T00:12:11.786Z,94800
2018-05-13T00:14:41.688Z,94803
2018-05-13T00:17:12.346Z,94804
2018-05-13T00:19:43.060Z,94807
2018-05-13T00:22:12.948Z,94803
2018-05-13T00:24:42.848Z,94795
2018-05-13T00:27:12.675Z,94799
2018-05-13T00:29:42.559Z,94794
2018-05-13T00:32:13.327Z,94787
2018-05-13T00:34:43.176Z,94788
2018-05-13T00:37:13.888Z,94785
2018-05-13T00:39:44.343Z,94783
2018-05-13T00:42:14.980Z,94784
2018-05-13T00:44:44.788Z,94780
2018-05-13T00:47:14.628Z,94778
2018-05-13T00:49:45.240Z,94775
2018-05-13T00:52:15.963Z,94773
2018-05-13T00:54:55.509Z,94768
2018-05-13T00:57:25.867Z,94765
2018-05-13T00:59:56.642Z,94762
2018-05-13T01:02:27.270Z,94772
2018-05-13T01:04:57.940Z,94764
2018-05-13T01:07:27.827Z,94764
2018-05-13T01:09:57.680Z,94764
2018-05-13T01:12:27.588Z,94758
2018-05-13T01:14:57.426Z,94760
2018-05-13T01:17:27.288Z,94762
2018-05-13T01:19:57.909Z,94759
2018-05-13T01:22:28.568Z,94756
2018-05-13T01:24:58.468Z,94753
2018-05-13T01:27:28.349Z,94754
2018-05-13T01:29:58.999Z,94757
2018-05-13T01:32:29.636Z,94751
2018-05-13T01:35:00.268Z,94753
2018-05-13T01:37:30.984Z,94752
2018-05-13T01:40:01.636Z,94752
2018-05-13T01:42:31.517Z,94747
2018-05-13T01:45:02.160Z,94746
2018-05-13T01:47:32.848Z,94750
2018-05-13T01:50:03.600Z,94749
2018-05-13T01:52:33.468Z,94745
2018-05-13T01:55:03.359Z,94747
2018-05-13T01:57:33.220Z,94750
2018-05-13T02:00:03.145Z,94751
2018-05-13T02:02:33.935Z,94750
2018-05-13T02:05:04.580Z,94742
2018-05-13T02:07:34.448Z,94742
2018-05-13T02:10:04.372Z,94747
2018-05-13T02:12:35.011Z,94745
2018-05-13T02:15:05.760Z,94747
2018-05-13T02:17:36.389Z,94745
2018-05-13T02:20:06.296Z,94739
2018-05-13T02:22:36.908Z,94741
2018-05-13T02:25:09.139Z,94743
2018-05-13T02:27:39.003Z,94737
2018-05-13T02:30:09.680Z,94737
2018-05-13T02:32:39.584Z,94738
2018-05-13T02:35:09.499Z,94738
2018-05-13T02:37:39.351Z,94734
2018-05-13T02:40:09.242Z,94741
2018-05-13T02:42:39.108Z,94740
2018-05-13T02:45:09.768Z,94745
2018-05-13T02:47:39.653Z,94738
2018-05-13T02:50:10.289Z,94740
2018-05-13T02:52:40.947Z,94733
2018-05-13T02:55:10.832Z,94734
2018-05-13T02:57:40.708Z,94726
2018-05-13T03:00:10.543Z,94731
2018-05-13T03:02:40.440Z,94731
2018-05-13T03:05:12.083Z,94727
2018-05-13T03:07:41.957Z,94732
2018-05-13T03:10:11.820Z,94727
2018-05-13T03:12:42.467Z,94729
2018-05-13T03:15:13.205Z,94724
2018-05-13T03:17:44.568Z,94724
2018-05-13T03:20:15.208Z,94727
2018-05-13T03:22:45.928Z,94740
2018-05-13T03:25:16.547Z,94736
2018-05-13T03:27:47.134Z,94738
2018-05-13T03:30:17.008Z,94731
2018-05-13T03:32:47.622Z,94730
2018-05-13T03:35:18.225Z,94731
2018-05-13T03:37:48.079Z,94728
2018-05-13T03:40:18.707Z,94730
2018-05-13T03:42:48.563Z,94735
2018-05-13T03:45:18.427Z,94734
2018-05-13T03:47:49.047Z,94738
2018-05-13T03:50:19.683Z,94740
2018-05-13T03:52:50.300Z,94740
2018-05-13T03:55:20.940Z,94735
2018-05-13T03:57:51.611Z,94735
2018-05-13T04:00:21.494Z,94740
2018-05-13T04:02:52.120Z,94737
2018-05-13T04:05:22.740Z,94734
2018-05-13T04:11:40.639Z,94747
2018-05-13T04:14:33.059Z,94741
2018-05-13T04:17:03.679Z,94738
2018-05-13T04:19:34.419Z,94748
2018-05-13T04:22:04.327Z,94744
2018-05-13T04:24:35.060Z,94751
2018-05-13T04:27:04.955Z,94748
2018-05-13T04:29:35.636Z,94748
2018-05-13T04:32:06.304Z,94749
2018-05-13T04:34:36.159Z,94753
2018-05-13T04:37:05.999Z,94751
2018-05-13T04:39:35.851Z,94748
2018-05-13T04:42:05.721Z,94749
2018-05-13T04:44:35.591Z,94748
2018-05-13T04:47:05.449Z,94750
2018-05-13T04:49:35.285Z,94747
2018-05-13T04:52:05.140Z,94744
2018-05-13T04:54:35.040Z,94741
2018-05-13T04:57:04.962Z,94748
2018-05-13T04:59:34.807Z,94747
2018-05-13T05:02:04.680Z,94747
2018-05-13T05:04:34.528Z,94752
2018-05-13T05:07:05.160Z,94750
2018-05-13T05:09:35.799Z,94746
2018-05-13T05:12:05.679Z,94745
2018-05-13T05:14:35.542Z,94745
2018-05-13T05:17:05.400Z,94750
2018-05-13T05:19:36.059Z,94747
2018-05-13T05:22:06.687Z,94749
2018-05-13T05:24:37.268Z,94751
2018-05-13T05:27:07.139Z,94758
2018-05-13T05:29:37.751Z,94757
2018-05-13T05:32:07.629Z,94752
2018-05-13T05:34:37.508Z,94753
2018-05-13T05:37:07.388Z,94753
2018-05-13T05:39:38.039Z,94749
2018-05-13T05:42:08.688Z,94746
2018-05-13T05:44:39.448Z,94749
2018-05-13T05:47:09.307Z,94746
2018-05-13T05:49:39.939Z,94735
2018-05-13T05:52:10.564Z,94734
2018-05-13T05:54:41.199Z,94735
2018-05-13T05:57:11.848Z,94732
2018-05-13T05:59:41.700Z,94724
2018-05-13T06:02:11.600Z,94720
2018-05-13T06:04:41.473Z,94718
2018-05-13T06:07:12.188Z,94717
2018-05-13T06:09:42.056Z,94712
2018-05-13T06:12:12.886Z,94711
2018-05-13T06:14:43.508Z,94711
2018-05-13T06:17:14.580Z,94714
2018-05-13T06:19:44.667Z,94703
2018-05-13T06:22:15.258Z,94698
2018-05-13T06:24:47.159Z,94700
2018-05-13T06:27:18.028Z,94692
2018-05-13T06:29:47.855Z,94699
2018-05-13T06:32:18.484Z,94690
2018-05-13T06:34:48.720Z,94693
2018-05-13T06:37:18.572Z,94692
2018-05-13T06:39:48.800Z,94687
2018-05-13T06:42:18.645Z,94686
2018-05-13T06:44:48.522Z,94683
2018-05-13T06:47:18.404Z,94676
2018-05-13T06:49:48.343Z,94675
2018-05-13T06:52:18.211Z,94668
2018-05-13T06:54:48.888Z,94668
2018-05-13T06:57:19.548Z,94656
2018-05-13T06:59:50.317Z,94660
2018-05-13T07:02:21.256Z,94655
2018-05-13T07:04:51.177Z,94655
2018-05-13T07:07:21.827Z,94646
2018-05-13T07:09:52.540Z,94648
2018-05-13T07:12:22.419Z,94646
2018-05-13T07:14:53.219Z,94648
2018-05-13T07:17:23.825Z,94644
2018-05-13T07:19:54.450Z,94641
2018-05-13T07:22:25.121Z,94644
2018-05-13T07:24:55.826Z,94636
2018-05-13T07:27:26.460Z,94633
2018-05-13T07:29:57.141Z,94626
2018-05-13T07:32:27.047Z,94626
2018-05-13T07:34:57.866Z,94619
2018-05-13T07:37:28.487Z,94624
2018-05-13T07:39:58.348Z,94619
2018-05-13T07:42:28.228Z,94621
2018-05-13T07:44:58.067Z,94607
2018-05-13T07:47:27.900Z,94607
2018-05-13T07:49:57.738Z,94602
2018-05-13T07:52:28.376Z,94602
2018-05-13T07:54:59.000Z,94601
2018-05-13T07:57:29.580Z,94592
2018-05-13T07:59:59.468Z,94585
2018-05-13T08:02:29.327Z,94584
2018-05-13T08:05:00.807Z,94577
2018-05-13T08:07:32.067Z,94577
2018-05-13T08:10:01.908Z,94572
2018-05-13T08:12:31.790Z,94568
2018-05-13T08:15:02.410Z,94568
2018-05-13T08:17:33.079Z,94562
2018-05-13T08:20:02.936Z,94556
2018-05-13T08:22:33.695Z,94556
2018-05-13T08:25:04.368Z,94550
2018-05-13T08:27:34.250Z,94545
2018-05-13T08:30:04.933Z,94543
2018-05-13T08:32:34.834Z,94542
2018-05-13T08:35:04.727Z,94546
2018-05-13T08:37:34.580Z,94545
2018-05-13T08:40:05.313Z,94542
2018-05-13T08:42:36.035Z,94540
2018-05-13T08:45:05.846Z,94530
2018-05-13T08:47:36.498Z,94527
2018-05-13T08:50:07.151Z,94522
2018-05-13T08:52:37.781Z,94520
2018-05-13T08:55:08.780Z,94516
2018-05-13T08:57:39.740Z,94507
2018-05-13T09:00:11.999Z,94505
2018-05-13T09:02:42.610Z,94504
2018-05-13T09:05:12.472Z,94491
2018-05-13T09:07:43.189Z,94496
2018-05-13T09:10:13.881Z,94496
2018-05-13T09:12:43.756Z,94494
2018-05-13T09:15:15.305Z,94492
2018-05-13T09:17:46.013Z,94489
2018-05-13T09:20:16.643Z,94484
2018-05-13T09:22:47.267Z,94493
2018-05-13T09:25:17.890Z,94491
2018-05-13T09:27:48.021Z,94489
2018-05-13T09:30:19.972Z,94486
2018-05-13T09:32:49.842Z,94476
2018-05-13T09:35:20.426Z,94477
2018-05-13T09:37:51.082Z,94475
2018-05-13T09:40:21.956Z,94477
2018-05-13T09:42:52.641Z,94468
2018-05-13T09:45:23.377Z,94467
2018-05-13T09:47:53.779Z,94470
2018-05-13T09:50:24.430Z,94463
2018-05-13T09:52:54.334Z,94469
2018-05-13T09:55:24.225Z,94458
2018-05-13T09:57:54.660Z,94464
2018-05-13T10:00:25.568Z,94459
2018-05-13T10:02:55.707Z,94454
2018-05-13T10:05:25.579Z,94451
2018-05-13T10:07:56.204Z,94449
2018-05-13T10:10:26.787Z,94454
2018-05-13T10:12:56.619Z,94456
2018-05-13T10:15:27.255Z,94456
2018-05-13T10:17:57.086Z,94446
2018-05-13T10:20:28.739Z,94450
2018-05-13T10:22:59.379Z,94454
2018-05-13T10:25:29.980Z,94445
2018-05-13T10:28:00.628Z,94444
2018-05-13T10:30:30.474Z,94439
2018-05-13T10:33:00.289Z,94430
2018-05-13T10:35:31.201Z,94438
2018-05-13T10:38:01.268Z,94432
2018-05-13T10:40:33.711Z,94427
2018-05-13T10:43:07.520Z,94424
2018-05-13T10:45:37.354Z,94423
2018-05-13T10:48:08.111Z,94417
2018-05-13T10:50:38.145Z,94421
2018-05-13T10:53:15.031Z,94414
2018-05-13T10:55:47.328Z,94416
2018-05-13T10:58:17.204Z,94410
2018-05-13T11:00:47.871Z,94415
2018-05-13T11:03:17.741Z,94407
2018-05-13T11:05:48.973Z,94397
2018-05-13T11:08:29.596Z,94394
2018-05-13T11:11:01.440Z,94389
2018-05-13T11:13:34.948Z,94393
2018-05-13T11:16:08.271Z,94387
2018-05-13T11:18:46.308Z,94382
2018-05-13T11:21:20.008Z,94378
2018-05-13T11:23:52.981Z,94376
2018-05-13T11:26:24.280Z,94377
2018-05-13T11:28:56.819Z,94369
2018-05-13T11:31:28.002Z,94369
2018-05-13T11:33:58.653Z,94366
2018-05-13T11:36:29.960Z,94360
2018-05-13T11:39:04.718Z,94359
2018-05-13T11:41:39.785Z,94360
2018-05-13T11:44:12.044Z,94356
2018-05-13T11:46:44.103Z,94355
2018-05-13T11:49:14.919Z,94345
2018-05-13T11:51:44.721Z,94343
2018-05-13T11:54:14.600Z,94344
2018-05-13T11:56:45.603Z,94339
2018-05-13T11:59:15.470Z,94336
2018-05-13T12:01:46.408Z,94331
2018-05-13T12:04:17.067Z,94327
2018-05-13T12:06:46.916Z,94326
2018-05-13T12:09:16.835Z,94323
2018-05-13T12:11:47.848Z,94325
2018-05-13T12:14:17.709Z,94319
2018-05-13T12:16:48.367Z,94319
2018-05-13T12:19:18.239Z,94318
2018-05-13T12:21:49.127Z,94310
2018-05-13T12:24:19.823Z,94301
2018-05-13T12:26:50.472Z,94306
2018-05-13T12:29:21.109Z,94301
2018-05-13T12:31:51.728Z,94302
2018-05-13T12:34:22.351Z,94298
2018-05-13T12:36:52.200Z,94298
2018-05-13T12:39:22.072Z,94293
2018-05-13T12:41:51.924Z,94294
2018-05-13T12:44:22.540Z,94291
2018-05-13T12:46:52.408Z,94289
2018-05-13T12:49:22.319Z,94282
2018-05-13T12:51:52.281Z,94280
2018-05-13T12:54:22.913Z,94274
2018-05-13T12:56:53.702Z,94271
2018-05-13T12:59:23.568Z,94261
2018-05-13T13:01:54.456Z,94265
2018-05-13T13:04:25.152Z,94245
2018-05-13T13:06:56.506Z,94243
2018-05-13T13:09:26.429Z,94234
2018-05-13T13:11:56.339Z,94227
2018-05-13T13:14:27.040Z,94230
2018-05-13T13:16:57.700Z,94229
2018-05-13T13:19:27.587Z,94225
2018-05-13T13:21:58.280Z,94217
2018-05-13T13:24:28.128Z,94215
2018-05-13T13:26:58.778Z,94215
2018-05-13T13:29:29.720Z,94213
2018-05-13T13:31:59.584Z,94210
2018-05-13T13:34:30.288Z,94200
2018-05-13T13:37:00.970Z,94200
2018-05-13T13:39:31.623Z,94209
2018-05-13T13:42:01.488Z,94191
2018-05-13T13:44:32.115Z,94181
2018-05-13T13:47:01.994Z,94174
2018-05-13T13:49:31.853Z,94185
2018-05-13T13:52:01.728Z,94173
2018-05-13T13:54:31.597Z,94174
2018-05-13T13:57:01.461Z,94166
2018-05-13T13:59:31.443Z,94156
2018-05-13T14:02:01.329Z,94162
2018-05-13T14:04:31.981Z,94162
2018-05-13T14:07:01.908Z,94164
2018-05-13T14:09:31.781Z,94156
2018-05-13T14:12:01.671Z,94152
2018-05-13T14:14:31.582Z,94148
2018-05-13T14:17:01.501Z,94139
2018-05-13T14:19:31.400Z,94135
2018-05-13T14:22:01.340Z,94133
2018-05-13T14:24:31.289Z,94134
2018-05-13T14:27:02.212Z,94139
2018-05-13T14:29:33.292Z,94139
2018-05-13T14:32:03.160Z,94142
2018-05-13T14:34:33.816Z,94137
2018-05-13T14:37:04.530Z,94139
2018-05-13T14:39:35.507Z,94144
2018-05-13T14:42:05.468Z,94142
2018-05-13T14:44:35.388Z,94140
2018-05-13T14:47:06.077Z,94138
2018-05-13T14:49:36.792Z,94140
2018-05-13T14:52:07.420Z,94139
2018-05-13T14:54:38.229Z,94133
2018-05-13T14:57:08.187Z,94136
2018-05-13T14:59:38.940Z,94124
2018-05-13T15:02:08.825Z,94125
2018-05-13T15:04:38.681Z,94121
2018-05-13T15:07:08.588Z,94120
2018-05-13T15:09:38.439Z,94121
2018-05-13T15:12:08.280Z,94128
2018-05-13T15:14:38.181Z,94130
2018-05-13T15:17:08.830Z,94134
2018-05-13T15:19:40.160Z,94149
2018-05-13T15:22:14.715Z,94168
2018-05-13T15:24:44.643Z,94200
2018-05-13T15:27:15.331Z,94217
2018-05-13T15:29:45.208Z,94223
2018-05-13T15:32:15.068Z,94223
2018-05-13T15:34:45.711Z,94235
2018-05-13T15:37:16.512Z,94235
2018-05-13T15:39:46.460Z,94232
2018-05-13T15:42:16.380Z,94236
2018-05-13T15:44:46.331Z,94237
2018-05-13T15:47:16.202Z,94240
2018-05-13T15:49:46.131Z,94243
2018-05-13T15:52:16.012Z,94240
2018-05-13T15:54:46.009Z,94233
2018-05-13T15:57:16.764Z,94232
2018-05-13T15:59:46.640Z,94237
2018-05-13T16:02:19.091Z,94239
2018-05-13T16:04:50.969Z,94229
2018-05-13T16:07:21.663Z,94213
2018-05-13T16:09:54.424Z,94203
2018-05-13T16:12:25.284Z,94193
2018-05-13T16:14:55.885Z,94189
2018-05-13T16:17:26.886Z,94191
2018-05-13T16:19:56.748Z,94195
2018-05-13T16:22:26.625Z,94197
2018-05-13T16:24:57.267Z,94211
2018-05-13T16:27:29.792Z,94205
2018-05-13T16:29:59.686Z,94214
2018-05-13T16:32:29.569Z,94219
2018-05-13T16:35:00.231Z,94224
2018-05-13T16:37:30.960Z,94211
2018-05-13T16:40:01.580Z,94210
2018-05-13T16:42:43.173Z,94223
2018-05-13T16:45:13.109Z,94216
2018-05-13T16:47:42.949Z,94219
2018-05-13T16:50:12.823Z,94206
2018-05-13T16:52:43.649Z,94210
2018-05-13T16:55:14.372Z,94205
2018-05-13T16:57:46.251Z,94209
2018-05-13T17:00:16.464Z,94213
2018-05-13T17:02:46.486Z,94208
2018-05-13T17:05:16.440Z,94206
2018-05-13T17:07:46.343Z,94204
2018-05-13T17:10:16.247Z,94213
2018-05-13T17:12:47.463Z,94220
2018-05-13T17:15:17.468Z,94218
2018-05-13T17:17:47.551Z,94216
2018-05-13T17:20:17.420Z,94177
2018-05-13T17:22:48.160Z,94217
2018-05-13T17:25:18.840Z,94216
2018-05-13T17:27:48.773Z,94218
2018-05-13T17:30:19.597Z,94222
2018-05-13T17:32:50.508Z,94216
2018-05-13T17:35:20.831Z,94222
2018-05-13T17:37:51.640Z,94227
2018-05-13T17:40:22.731Z,94224
2018-05-13T17:42:53.349Z,94228
2018-05-13T17:45:23.325Z,94226
2018-05-13T17:47:54.533Z,94226
2018-05-13T17:50:25.211Z,94217
2018-05-13T17:52:57.100Z,94216
2018-05-13T17:55:28.448Z,94216
2018-05-13T17:57:58.411Z,94214
2018-05-13T18:00:29.329Z,94223
2018-05-13T18:03:00.094Z,94224
2018-05-13T18:05:31.599Z,94217
2018-05-13T18:08:01.638Z,94215
2018-05-13T18:10:40.232Z,94213
2018-05-13T18:13:11.076Z,94208
2018-05-13T18:15:42.028Z,94205
2018-05-13T18:18:16.401Z,94197
2018-05-13T18:20:47.739Z,94197
2018-05-13T18:23:17.768Z,94196
2018-05-13T18:25:48.593Z,94204
2018-05-13T18:28:18.509Z,94202
2018-05-13T18:30:50.475Z,94208
2018-05-13T18:33:20.696Z,94213
2018-05-13T18:35:50.713Z,94211
2018-05-13T18:38:21.471Z,94206
2018-05-13T18:40:52.250Z,94211
2018-05-13T18:43:22.965Z,94213
2018-05-13T18:45:54.000Z,94220
2018-05-13T18:48:24.991Z,94218
2018-05-13T18:50:56.241Z,94226
2018-05-13T18:53:26.123Z,94225
2018-05-13T18:55:56.924Z,94226
2018-05-13T18:58:26.842Z,94224
2018-05-13T19:00:57.042Z,94233
2018-05-13T19:03:27.592Z,94238
2018-05-13T19:05:58.437Z,94235
2018-05-13T19:08:29.128Z,94244
2018-05-13T19:11:00.260Z,94250
2018-05-13T19:13:31.521Z,94252
2018-05-13T19:16:04.042Z,94247
2018-05-13T19:18:34.780Z,94252
2018-05-13T19:21:05.533Z,94253
2018-05-13T19:23:36.509Z,94258
2018-05-13T19:26:08.197Z,94258
2018-05-13T19:28:38.860Z,94268
2018-05-13T19:31:09.504Z,94277
2018-05-13T19:33:39.474Z,94280
2018-05-13T19:36:11.018Z,94286
2018-05-13T19:38:41.701Z,94289
2018-05-13T19:41:12.693Z,94283
2018-05-13T19:43:42.566Z,94283
2018-05-13T19:46:13.306Z,94290
2018-05-13T19:48:43.133Z,94288
2018-05-13T19:51:13.108Z,94292
2018-05-13T19:53:43.804Z,94287
2018-05-13T19:56:15.263Z,94290
2018-05-13T19:58:45.236Z,94292
2018-05-13T20:01:15.960Z,94279
2018-05-13T20:03:47.110Z,94277
2018-05-13T20:06:16.949Z,94273
2018-05-13T20:08:46.934Z,94278
2018-05-13T20:11:17.647Z,94274
2018-05-13T20:13:48.322Z,94272
2018-05-13T20:16:18.201Z,94272
2018-05-13T20:18:48.042Z,94283
2018-05-13T20:21:17.908Z,94283
2018-05-13T20:23:49.069Z,94289
2018-05-13T20:26:19.008Z,94297
2018-05-13T20:28:49.630Z,94307
2018-05-13T20:31:19.529Z,94312
2018-05-13T20:33:49.382Z,94317
2018-05-13T20:36:19.291Z,94315
2018-05-13T20:38:49.129Z,94314
2018-05-13T20:41:19.808Z,94315
2018-05-13T20:43:49.680Z,94313
2018-05-13T20:46:19.628Z,94315
2018-05-13T20:48:49.530Z,94316
2018-05-13T20:51:20.873Z,94320
2018-05-13T20:53:50.739Z,94324
2018-05-13T20:56:20.585Z,94329
2018-05-13T20:58:51.183Z,94332
2018-05-13T21:01:21.083Z,94338
2018-05-13T21:03:51.768Z,94338
2018-05-13T21:06:21.651Z,94340
2018-05-13T21:08:52.480Z,94346
2018-05-13T21:11:22.339Z,94340
2018-05-13T21:13:52.939Z,94344
2018-05-13T21:16:23.588Z,94346
2018-05-13T21:18:55.043Z,94349
2018-05-13T21:21:25.703Z,94352
2018-05-13T21:23:55.576Z,94353
2018-05-13T21:26:27.056Z,94349
2018-05-13T21:28:58.180Z,94348
2018-05-13T21:31:28.807Z,94344
2018-05-13T21:33:59.549Z,94340
2018-05-13T21:36:29.409Z,94336
2018-05-13T21:38:59.357Z,94330
2018-05-13T21:41:30.005Z,94321
2018-05-13T21:44:01.941Z,94326
2018-05-13T21:46:32.928Z,94326
2018-05-13T21:49:03.768Z,94319
2018-05-13T21:51:34.463Z,94317
2018-05-13T21:54:05.900Z,94321
2018-05-13T21:56:35.749Z,94314
2018-05-13T21:59:06.418Z,94311
2018-05-13T22:01:37.116Z,94309
2018-05-13T22:04:07.848Z,94308
2018-05-13T22:06:37.776Z,94305
2018-05-13T22:09:07.624Z,94309
2018-05-13T22:11:37.515Z,94310
2018-05-13T22:14:08.204Z,94311
2018-05-13T22:16:38.067Z,94309
2018-05-13T22:19:07.943Z,94305
2018-05-13T22:21:37.898Z,94311
2018-05-13T22:24:09.428Z,94304
2018-05-13T22:26:40.891Z,94300
2018-05-13T22:29:11.587Z,94304
2018-05-13T22:31:42.219Z,94300
2018-05-13T22:34:13.735Z,94305
2018-05-13T22:36:43.584Z,94308
2018-05-13T22:39:13.448Z,94312
2018-05-13T22:41:43.328Z,94313
2018-05-13T22:44:13.948Z,94316
2018-05-13T22:46:44.589Z,94315
2018-05-13T22:49:15.208Z,94315
2018-05-13T22:51:45.831Z,94318
2018-05-13T22:54:16.289Z,94323
2018-05-13T22:56:46.100Z,94327
2018-05-13T22:59:15.940Z,94324
2018-05-13T23:01:45.783Z,94315
2018-05-13T23:04:15.668Z,94316
2018-05-13T23:06:45.527Z,94315
2018-05-13T23:09:16.270Z,94314
2018-05-13T23:11:47.208Z,94312
2018-05-13T23:14:17.120Z,94314
2018-05-13T23:16:46.960Z,94322
2018-05-13T23:19:16.880Z,94317
2018-05-13T23:21:46.728Z,94319
2018-05-13T23:24:16.709Z,94322
2018-05-13T23:26:47.480Z,94319
2018-05-13T23:29:17.360Z,94321
2018-05-13T23:31:47.233Z,94322
2018-05-13T23:34:17.864Z,94323
2018-05-13T23:36:48.691Z,94330
2018-05-13T23:39:19.324Z,94333
2018-05-13T23:41:49.978Z,94329
2018-05-13T23:44:19.853Z,94331
2018-05-13T23:46:50.557Z,94329
2018-05-13T23:49:21.280Z,94325
2018-05-13T23:51:52.273Z,94326
2018-05-13T23:54:23.992Z,94328
2018-05-13T23:56:53.928Z,94325
2018-05-13T23:59:24.720Z,94321
